Time;durP1;ratioP1;P1;durP2;ratioP2;P2;SDS_P1;SDS_P2;PMS_P1;PMS_P2;Temp;Humidity;BMP_temperature;BMP_pressure;BME280_temperature;BME280_humidity;BME280_pressure;Samples;Min_cycle;Max_cycle;Signal;HPM_P1;HPM_P2
2024/03/03 00:00:13;;;;;;;28.70;11.70;;;;;;;0.42;74.71;98949.33;104822;1271;74318;-27
2024/03/03 00:02:41;;;;;;;44.50;18.00;;;;;;;0.90;74.46;98950.56;104902;1270;72680;-28
2024/03/03 00:11:20;;;;;;;31.60;16.00;;;;;;;1.53;71.19;98941.63;102645;1291;600315;-25
2024/03/03 00:21:23;;;;;;;30.60;14.40;;;;;;;0.52;75.63;98937.82;102655;1292;599909;-28
2024/03/03 00:23:51;;;;;;;19.60;10.50;;;;;;;0.40;75.33;98936.08;104922;1265;61224;-28
2024/03/03 00:26:19;;;;;;;34.30;14.60;;;;;;;0.82;74.70;98929.36;104909;1265;61123;-27
2024/03/03 00:28:47;;;;;;;28.00;14.60;;;;;;;1.44;72.33;98928.18;104817;1266;72047;-28
2024/03/03 00:31:18;;;;;;;37.90;15.70;;;;;;;1.62;70.83;98927.35;104849;1266;74492;-28
2024/03/03 00:33:47;;;;;;;30.40;14.20;;;;;;;1.22;72.00;98924.39;104851;1268;72645;-27
2024/03/03 00:36:15;;;;;;;25.70;13.80;;;;;;;1.15;72.17;98922.29;105028;1262;61107;-28
2024/03/03 00:38:43;;;;;;;28.60;13.80;;;;;;;0.99;71.94;98922.13;104971;1263;61164;-27
2024/03/03 00:48:52;;;;;;;24.20;11.10;;;;;;;0.20;74.13;98911.83;102726;1290;599316;-27
2024/03/03 00:51:19;;;;;;;25.10;11.30;;;;;;;-0.01;74.71;98910.09;105044;1269;61184;-28
2024/03/03 00:53:47;;;;;;;25.90;13.40;;;;;;;0.40;75.60;98907.23;104844;1263;61177;-28
2024/03/03 00:56:15;;;;;;;43.10;20.60;;;;;;;1.26;73.09;98903.34;104848;1270;72527;-28
2024/03/03 00:58:43;;;;;;;41.10;19.10;;;;;;;1.49;71.44;98903.33;104910;1263;74291;-28
2024/03/03 01:08:47;;;;;;;48.60;17.70;;;;;;;0.70;72.13;98900.33;102683;1293;599409;-25
2024/03/03 01:11:15;;;;;;;48.10;18.60;;;;;;;0.45;72.23;98898.80;104758;1273;61186;-27
2024/03/03 01:21:28;;;;;;;23.20;10.80;;;;;;;-0.34;75.73;98893.63;102757;1290;599257;-27
2024/03/03 01:31:37;;;;;;;28.90;13.60;;;;;;;0.99;71.95;98885.91;102676;1294;599332;-25
2024/03/03 01:34:05;;;;;;;26.30;13.80;;;;;;;0.70;72.81;98887.15;104816;1266;61168;-28
2024/03/03 01:36:33;;;;;;;30.70;15.40;;;;;;;0.52;73.42;98884.87;105363;1256;61171;-28
2024/03/03 01:39:02;;;;;;;30.60;13.40;;;;;;;0.20;74.40;98883.27;105332;1256;71960;-28
2024/03/03 01:41:30;;;;;;;30.10;15.10;;;;;;;0.07;74.52;98879.55;105343;1256;74336;-27
2024/03/03 01:43:58;;;;;;;28.10;14.80;;;;;;;-0.15;76.02;98883.67;105522;1260;72689;-27
2024/03/03 01:46:26;;;;;;;18.10;10.30;;;;;;;-0.36;76.84;98880.90;105486;1259;245845;-27
2024/03/03 01:48:54;;;;;;;27.00;14.50;;;;;;;0.07;76.61;98878.69;105449;1261;61146;-26
2024/03/03 01:51:22;;;;;;;28.10;14.70;;;;;;;0.89;73.96;98877.60;105468;1262;70929;-26
2024/03/03 01:53:52;;;;;;;30.60;14.80;;;;;;;1.04;72.12;98878.33;105538;1262;73201;-26
2024/03/03 02:03:07;;;;;;;25.00;14.30;;;;;;;0.32;73.67;98878.70;102760;1290;599889;-27
2024/03/03 02:05:35;;;;;;;30.50;13.80;;;;;;;0.08;74.65;98877.48;104801;1267;61180;-27
2024/03/03 02:08:04;;;;;;;24.10;13.00;;;;;;;-0.04;74.45;98881.73;104888;1272;61123;-27
2024/03/03 02:18:08;;;;;;;42.70;18.70;;;;;;;1.07;72.36;98876.48;102730;1294;599326;-25
2024/03/03 02:20:36;;;;;;;44.90;19.20;;;;;;;1.36;71.06;98876.56;105070;1269;61275;-27
2024/03/03 02:23:05;;;;;;;40.00;21.00;;;;;;;1.20;70.28;98875.90;104831;1267;61732;-28
2024/03/03 02:25:33;;;;;;;42.10;19.80;;;;;;;0.87;70.74;98874.82;105099;1269;72197;-27
2024/03/03 02:28:01;;;;;;;38.40;18.10;;;;;;;0.49;72.17;98872.86;105024;1269;74340;-28
2024/03/03 02:30:29;;;;;;;30.10;15.40;;;;;;;0.23;72.79;98876.00;104773;1273;71634;-28
2024/03/03 02:32:57;;;;;;;34.70;14.50;;;;;;;0.03;72.97;98867.59;105054;1264;189293;-27
2024/03/03 02:35:25;;;;;;;31.90;15.20;;;;;;;-0.23;74.42;98866.74;105153;1273;61186;-27
2024/03/03 02:37:53;;;;;;;27.90;13.80;;;;;;;-0.29;74.45;98866.13;105195;1266;72247;-27
2024/03/03 02:40:21;;;;;;;27.00;12.40;;;;;;;-0.54;76.49;98865.39;105089;1268;74356;-27
2024/03/03 02:42:49;;;;;;;26.90;13.10;;;;;;;-0.02;76.13;98863.52;104861;1264;71461;-28
2024/03/03 02:45:17;;;;;;;31.40;13.00;;;;;;;0.82;73.06;98863.23;104891;1269;61107;-28
2024/03/03 02:55:21;;;;;;;25.30;14.30;;;;;;;0.50;71.70;98866.82;102708;1290;599406;-25
2024/03/03 02:57:49;;;;;;;25.10;13.50;;;;;;;0.25;72.10;98865.67;104960;1263;61081;-27
2024/03/03 03:00:17;;;;;;;24.40;12.30;;;;;;;0.02;72.81;98867.14;104857;1263;61190;-27
2024/03/03 03:02:45;;;;;;;22.80;13.70;;;;;;;-0.21;73.71;98866.18;105145;1260;72230;-27
2024/03/03 03:05:13;;;;;;;23.00;11.00;;;;;;;-0.44;75.51;98870.29;105179;1267;74429;-27
2024/03/03 03:14:38;;;;;;;13.70;8.20;;;;;;;1.05;70.71;98870.25;102727;1290;599034;-25
2024/03/03 03:17:06;;;;;;;18.90;13.00;;;;;;;0.78;71.07;98873.31;104833;1271;61167;-27
2024/03/03 03:27:11;;;;;;;20.80;12.30;;;;;;;-0.18;74.55;98878.52;102676;1292;600051;-27
2024/03/03 03:29:38;;;;;;;19.50;9.70;;;;;;;-0.45;75.07;98880.41;104880;1266;61187;-27
2024/03/03 03:32:06;;;;;;;19.40;10.80;;;;;;;-0.02;74.90;98882.10;104820;1266;61243;-27
2024/03/03 03:34:34;;;;;;;35.00;15.90;;;;;;;0.59;73.50;98884.22;104843;1269;70983;-27
2024/03/03 03:37:03;;;;;;;19.30;11.20;;;;;;;0.80;72.27;98886.24;104804;1266;73051;-28
2024/03/03 03:39:31;;;;;;;14.40;9.10;;;;;;;0.68;72.00;98887.05;104907;1266;71690;-27
2024/03/03 03:41:59;;;;;;;19.10;7.60;;;;;;;0.54;71.85;98886.14;104952;1263;189025;-27
2024/03/03 03:52:28;;;;;;;19.70;11.40;;;;;;;-0.31;74.83;98896.58;102568;1295;615710;-26
2024/03/03 03:54:55;;;;;;;13.60;6.70;;;;;;;-0.53;76.27;98892.50;104851;1270;61125;-27
2024/03/03 03:57:22;;;;;;;19.20;9.40;;;;;;;0.23;74.93;98889.62;105176;1264;61184;-26
2024/03/03 03:59:49;;;;;;;14.30;8.20;;;;;;;0.87;72.16;98890.34;105159;1269;72041;-27
2024/03/03 04:02:16;;;;;;;20.60;9.80;;;;;;;0.90;71.38;98889.20;105236;1260;74187;-27
2024/03/03 04:04:43;;;;;;;27.10;13.40;;;;;;;0.63;71.69;98887.10;105167;1266;186420;-27
2024/03/03 04:07:10;;;;;;;12.10;8.30;;;;;;;0.36;72.34;98887.92;105334;1261;61163;-26
2024/03/03 04:09:39;;;;;;;24.10;11.60;;;;;;;0.07;73.23;98887.41;105454;1263;61131;-26
2024/03/03 04:12:06;;;;;;;22.10;11.30;;;;;;;-0.16;74.50;98890.35;105385;1257;72003;-26
2024/03/03 04:14:34;;;;;;;20.00;10.90;;;;;;;-0.35;75.14;98889.40;105623;1263;74430;-27
2024/03/03 04:17:01;;;;;;;13.00;7.10;;;;;;;-0.57;76.13;98888.02;105658;1261;72462;-27
2024/03/03 04:19:28;;;;;;;25.20;11.20;;;;;;;-0.09;75.82;98890.60;105649;1258;60988;-26
2024/03/03 04:21:55;;;;;;;19.00;10.70;;;;;;;0.64;73.35;98890.83;105513;1256;61099;-27
2024/03/03 04:24:22;;;;;;;15.50;7.80;;;;;;;0.83;72.20;98890.03;105611;1262;73484;-26
2024/03/03 04:26:49;;;;;;;20.80;9.60;;;;;;;0.64;72.11;98889.81;105597;1257;74335;-26
2024/03/03 04:29:16;;;;;;;10.80;7.10;;;;;;;0.38;72.34;98893.81;105474;1258;72469;-26
2024/03/03 04:31:44;;;;;;;20.90;9.40;;;;;;;0.14;72.86;98891.39;105481;1256;60978;-26
2024/03/03 04:34:11;;;;;;;22.80;10.40;;;;;;;-0.10;73.39;98894.04;105478;1269;61400;-26
2024/03/03 04:36:44;;;;;;;14.80;7.20;;;;;;;-0.31;73.94;98902.57;105616;1258;72785;-26
2024/03/03 04:39:12;;;;;;;17.00;8.30;;;;;;;-0.34;75.15;98902.67;105630;1263;72880;-26
2024/03/03 04:41:39;;;;;;;23.10;10.60;;;;;;;0.51;73.24;98900.46;105598;1261;72698;-26
2024/03/03 04:44:06;;;;;;;22.70;10.00;;;;;;;0.79;71.90;98899.61;105626;1255;61067;-26
2024/03/03 04:46:33;;;;;;;22.70;11.50;;;;;;;0.73;71.37;98898.64;105655;1260;61194;-26
2024/03/03 04:49:00;;;;;;;23.30;12.50;;;;;;;0.50;71.88;98903.89;105941;1254;72800;-26
2024/03/03 04:51:27;;;;;;;20.70;10.10;;;;;;;0.22;73.10;98902.67;105621;1257;73250;-25
2024/03/03 04:53:55;;;;;;;20.20;10.40;;;;;;;0.08;73.15;98903.08;105941;1256;73194;-26
2024/03/03 04:56:27;;;;;;;13.50;9.10;;;;;;;-0.18;74.83;98909.71;105819;1256;61062;-26
2024/03/03 04:58:54;;;;;;;17.10;9.40;;;;;;;-0.38;76.03;98913.39;105866;1260;61127;-26
2024/03/03 05:01:20;;;;;;;22.10;10.10;;;;;;;-0.60;77.06;98914.23;105723;1256;72969;-26
2024/03/03 05:03:48;;;;;;;21.70;11.90;;;;;;;-0.15;76.89;98915.76;105866;1260;74739;-26
2024/03/03 05:06:15;;;;;;;23.20;10.50;;;;;;;0.71;74.97;98919.05;105837;1256;72637;-26
2024/03/03 05:08:42;;;;;;;19.70;10.30;;;;;;;1.07;72.76;98919.23;105886;1257;61176;-26
2024/03/03 05:11:09;;;;;;;23.10;12.40;;;;;;;0.96;72.56;98921.28;105947;1257;61144;-26
2024/03/03 05:13:38;;;;;;;19.60;10.50;;;;;;;0.80;72.61;98916.30;105850;1255;73031;-26
2024/03/03 05:16:07;;;;;;;18.10;10.50;;;;;;;0.62;72.89;98918.64;105872;1260;74460;-26
2024/03/03 05:18:34;;;;;;;23.80;10.60;;;;;;;0.45;73.58;98918.81;105735;1255;72809;-26
2024/03/03 05:21:01;;;;;;;14.60;7.70;;;;;;;0.28;74.30;98915.55;105818;1254;61092;-26
2024/03/03 05:23:28;;;;;;;17.10;7.80;;;;;;;0.09;75.19;98915.80;105816;1257;61129;-26
2024/03/03 05:25:56;;;;;;;11.20;6.10;;;;;;;0.63;74.71;98915.80;105736;1257;73540;-26
2024/03/03 05:28:24;;;;;;;12.50;7.70;;;;;;;1.37;72.47;98912.08;105782;1254;74668;-26
2024/03/03 05:30:52;;;;;;;13.60;7.90;;;;;;;1.65;71.33;98918.69;105825;1254;72646;-26
2024/03/03 05:33:19;;;;;;;15.00;8.10;;;;;;;1.58;71.01;98922.38;105727;1254;61045;-26
2024/03/03 05:35:46;;;;;;;9.90;5.90;;;;;;;1.37;71.73;98919.61;105591;1263;61160;-26
2024/03/03 05:38:15;;;;;;;17.90;9.50;;;;;;;1.20;72.41;98919.33;105782;1257;73025;-26
2024/03/03 05:40:42;;;;;;;19.50;8.10;;;;;;;1.15;72.67;98918.02;105872;1260;74316;-26
2024/03/03 05:43:09;;;;;;;8.20;4.70;;;;;;;1.03;73.26;98915.99;105928;1253;72720;-26
2024/03/03 05:45:37;;;;;;;11.80;7.70;;;;;;;1.15;73.96;98914.96;105919;1257;61192;-26
2024/03/03 05:48:05;;;;;;;10.70;5.80;;;;;;;1.87;71.93;98917.63;105624;1255;61077;-26
2024/03/03 05:50:32;;;;;;;17.10;6.70;;;;;;;2.06;71.01;98918.95;105768;1257;73011;-26
2024/03/03 05:53:00;;;;;;;14.50;6.50;;;;;;;2.00;70.85;98919.94;105596;1258;74244;-26
2024/03/03 05:55:27;;;;;;;9.60;5.70;;;;;;;1.80;71.45;98923.13;105588;1256;72637;-26
2024/03/03 05:57:54;;;;;;;8.90;6.60;;;;;;;1.66;72.17;98924.09;105590;1254;61049;-26
2024/03/03 06:00:22;;;;;;;10.50;6.00;;;;;;;1.51;72.75;98924.64;105747;1257;61157;-27
2024/03/03 06:02:49;;;;;;;24.10;8.90;;;;;;;2.15;71.91;98926.41;105759;1257;73464;-27
2024/03/03 06:05:17;;;;;;;6.20;4.30;;;;;;;2.59;70.19;98927.17;105877;1254;74217;-26
2024/03/03 06:07:44;;;;;;;21.60;6.30;;;;;;;2.57;69.48;98926.41;105943;1257;72592;-26
2024/03/03 06:10:11;;;;;;;8.50;6.00;;;;;;;2.48;69.95;98930.64;105855;1254;61055;-26
2024/03/03 06:12:39;;;;;;;12.20;6.80;;;;;;;2.21;70.72;98930.05;105758;1254;61507;-26
2024/03/03 06:15:06;;;;;;;16.80;7.30;;;;;;;2.11;71.27;98926.09;105759;1258;73015;-27
2024/03/03 06:17:33;;;;;;;13.80;5.90;;;;;;;2.29;71.70;98927.63;105876;1254;73075;-27
2024/03/03 06:20:02;;;;;;;14.80;6.30;;;;;;;2.96;69.72;98931.47;105889;1254;72636;-27
2024/03/03 06:22:29;;;;;;;16.70;8.10;;;;;;;3.17;68.76;98932.44;105875;1254;61141;-27
2024/03/03 06:24:56;;;;;;;12.40;7.20;;;;;;;3.16;68.64;98933.16;105837;1257;61198;-27
2024/03/03 06:27:23;;;;;;;9.80;6.10;;;;;;;2.97;69.13;98928.66;105871;1254;73554;-27
2024/03/03 06:29:50;;;;;;;17.90;7.80;;;;;;;2.75;69.21;98924.63;105883;1257;74471;-27
2024/03/03 06:32:17;;;;;;;15.60;8.80;;;;;;;2.60;69.97;98928.48;105921;1256;72738;-27
2024/03/03 06:34:45;;;;;;;14.30;7.40;;;;;;;2.80;70.37;98931.94;105895;1255;61156;-27
2024/03/03 06:37:15;;;;;;;14.60;8.10;;;;;;;3.62;68.06;98934.31;105872;1254;61070;-27
2024/03/03 06:39:44;;;;;;;8.90;6.30;;;;;;;3.94;66.27;98932.76;105695;1254;74270;-27
2024/03/03 06:42:11;;;;;;;32.80;12.00;;;;;;;3.95;66.08;98936.33;105684;1258;74295;-27
2024/03/03 06:44:42;;;;;;;15.30;8.40;;;;;;;3.96;66.06;98936.92;105904;1254;72330;-27
2024/03/03 06:47:09;;;;;;;17.70;8.20;;;;;;;3.85;65.92;98937.38;105899;1254;61049;-26
2024/03/03 06:49:36;;;;;;;13.60;7.10;;;;;;;3.83;66.71;98941.80;105898;1253;61502;-27
2024/03/03 06:52:04;;;;;;;17.00;9.90;;;;;;;3.78;66.61;98943.13;105690;1254;73087;-28
2024/03/03 06:54:31;;;;;;;11.10;5.60;;;;;;;3.73;66.85;98944.20;105636;1258;74291;-28
2024/03/03 06:56:58;;;;;;;13.30;7.60;;;;;;;3.99;66.93;98943.33;105651;1256;72460;-29
2024/03/03 06:59:27;;;;;;;7.90;4.50;;;;;;;4.87;64.83;98939.83;105728;1257;61162;-28
2024/03/03 07:01:54;;;;;;;11.50;6.70;;;;;;;5.14;62.43;98937.04;105702;1252;61108;-27
2024/03/03 07:04:24;;;;;;;13.20;5.80;;;;;;;5.09;61.76;98936.63;105711;1257;72905;-27
2024/03/03 07:06:51;;;;;;;14.50;7.90;;;;;;;4.94;61.86;98939.58;105901;1257;74282;-27
2024/03/03 07:09:22;;;;;;;15.00;7.80;;;;;;;4.88;62.36;98935.78;105883;1257;72443;-26
2024/03/03 07:11:54;;;;;;;16.20;6.70;;;;;;;4.75;62.23;98934.30;105875;1252;60989;-26
2024/03/03 07:14:22;;;;;;;16.30;8.30;;;;;;;4.56;61.74;98932.19;105581;1257;61218;-27
2024/03/03 07:16:49;;;;;;;10.50;6.10;;;;;;;4.50;62.59;98930.31;105807;1254;72902;-26
2024/03/03 07:19:16;;;;;;;13.50;6.80;;;;;;;4.46;62.56;98931.02;105923;1260;74726;-25
2024/03/03 07:21:44;;;;;;;14.30;6.30;;;;;;;4.46;62.43;98927.42;105849;1254;72597;-25
2024/03/03 07:24:12;;;;;;;7.90;5.60;;;;;;;4.56;62.19;98929.44;105634;1254;61116;-26
2024/03/03 07:26:39;;;;;;;20.50;9.30;;;;;;;4.69;61.86;98929.20;105648;1256;61087;-25
2024/03/03 07:29:07;;;;;;;10.10;6.10;;;;;;;4.86;61.79;98927.15;105818;1254;73030;-25
2024/03/03 07:31:35;;;;;;;16.50;6.90;;;;;;;5.01;61.08;98925.42;105843;1254;74307;-25
2024/03/03 07:34:03;;;;;;;16.90;8.40;;;;;;;5.03;60.70;98924.95;105930;1254;73008;-25
2024/03/03 07:36:30;;;;;;;10.30;7.20;;;;;;;5.16;60.58;98925.70;105893;1257;61161;-25
2024/03/03 07:38:58;;;;;;;12.30;7.80;;;;;;;5.24;59.77;98925.39;105898;1254;61166;-26
2024/03/03 07:41:25;;;;;;;9.80;5.80;;;;;;;5.40;59.64;98919.08;105882;1256;73161;-25
2024/03/03 07:43:53;;;;;;;17.80;8.00;;;;;;;5.62;59.19;98918.06;105981;1257;74128;-25
2024/03/03 07:46:20;;;;;;;12.70;7.50;;;;;;;5.81;57.98;98918.07;105922;1257;72598;-25
2024/03/03 07:48:48;;;;;;;19.00;8.70;;;;;;;6.04;57.68;98919.91;105677;1254;61154;-25
2024/03/03 07:51:18;;;;;;;13.20;6.40;;;;;;;6.25;57.10;98920.09;105730;1254;61156;-26
2024/03/03 07:53:46;;;;;;;14.20;7.40;;;;;;;6.32;56.11;98919.87;105860;1254;72824;-25
2024/03/03 07:56:13;;;;;;;13.50;8.20;;;;;;;6.45;55.70;98921.55;105724;1254;74166;-25
2024/03/03 07:58:40;;;;;;;8.50;4.70;;;;;;;6.65;55.64;98924.69;105626;1255;72622;-25
2024/03/03 08:01:07;;;;;;;10.40;5.00;;;;;;;6.68;53.85;98917.48;105762;1254;61061;-25
2024/03/03 08:03:35;;;;;;;12.20;5.50;;;;;;;6.74;53.88;98914.67;105600;1258;61145;-27
2024/03/03 08:06:02;;;;;;;9.30;5.40;;;;;;;6.81;53.63;98914.52;105668;1254;73806;-25
2024/03/03 08:08:29;;;;;;;11.90;5.60;;;;;;;6.91;52.91;98915.93;105904;1257;74355;-25
2024/03/03 08:10:56;;;;;;;11.80;5.60;;;;;;;6.92;52.83;98914.33;105883;1254;72764;-25
2024/03/03 08:13:23;;;;;;;8.70;4.80;;;;;;;6.92;52.29;98915.00;105575;1254;60994;-25
2024/03/03 08:15:50;;;;;;;5.90;4.20;;;;;;;6.94;52.20;98916.27;105670;1258;61100;-25
2024/03/03 08:18:18;;;;;;;11.50;4.40;;;;;;;6.79;51.51;98910.35;105678;1254;73720;-26
2024/03/03 08:20:45;;;;;;;9.80;4.20;;;;;;;6.61;51.44;98908.98;105682;1254;74308;-25
2024/03/03 08:23:14;;;;;;;10.00;5.20;;;;;;;6.56;51.88;98911.86;105790;1253;72641;-25
2024/03/03 08:25:41;;;;;;;13.40;4.50;;;;;;;6.45;52.25;98907.14;105510;1254;61221;-25
2024/03/03 08:28:09;;;;;;;7.20;3.70;;;;;;;6.30;51.77;98909.30;105527;1257;61138;-25
2024/03/03 08:30:36;;;;;;;7.60;5.00;;;;;;;6.31;51.43;98902.50;105711;1254;74169;-25
2024/03/03 08:33:03;;;;;;;11.40;6.30;;;;;;;6.70;51.18;98900.80;105797;1256;74027;-25
2024/03/03 08:35:30;;;;;;;11.10;5.90;;;;;;;6.85;51.14;98899.95;105684;1254;72398;-25
2024/03/03 08:37:57;;;;;;;4.10;3.40;;;;;;;7.43;50.43;98905.77;105815;1253;61190;-25
2024/03/03 08:40:25;;;;;;;5.70;3.70;;;;;;;7.65;49.77;98904.05;105839;1254;61195;-25
2024/03/03 08:42:53;;;;;;;9.80;5.40;;;;;;;7.88;49.30;98900.02;105635;1257;72809;-25
2024/03/03 08:45:21;;;;;;;12.40;6.40;;;;;;;8.21;47.85;98895.21;105847;1254;76429;-26
2024/03/03 08:47:48;;;;;;;7.20;4.50;;;;;;;8.33;47.21;98887.57;105655;1255;73015;-25
2024/03/03 08:50:15;;;;;;;11.00;5.50;;;;;;;8.39;47.02;98887.62;105848;1253;61079;-25
2024/03/03 08:52:42;;;;;;;10.60;5.30;;;;;;;8.48;46.74;98888.92;105888;1257;61143;-25
2024/03/03 08:55:09;;;;;;;11.80;5.10;;;;;;;8.70;46.42;98886.52;105936;1254;73863;-25
2024/03/03 08:57:36;;;;;;;21.40;3.20;;;;;;;8.85;45.95;98877.33;105841;1257;74300;-25
2024/03/03 09:00:12;;;;;;;8.90;6.10;;;;;;;8.73;46.02;98876.45;105842;1254;72659;-25
2024/03/03 09:02:40;;;;;;;7.10;4.00;;;;;;;8.92;45.77;98880.41;105947;1254;61147;-25
2024/03/03 09:05:11;;;;;;;6.70;4.80;;;;;;;8.95;44.89;98880.30;105891;1256;61100;-25
2024/03/03 09:07:39;;;;;;;10.70;5.50;;;;;;;8.99;44.74;98876.38;105664;1254;72635;-25
2024/03/03 09:10:07;;;;;;;6.50;4.30;;;;;;;9.02;44.75;98873.44;105814;1257;75374;-25
2024/03/03 09:12:35;;;;;;;7.00;4.50;;;;;;;9.02;45.03;98875.78;105627;1254;72687;-25
2024/03/03 09:15:02;;;;;;;10.10;5.80;;;;;;;9.01;44.88;98872.94;105872;1254;61068;-25
2024/03/03 09:17:30;;;;;;;10.50;4.10;;;;;;;9.23;44.05;98874.15;105920;1257;61202;-25
2024/03/03 09:19:57;;;;;;;29.70;5.00;;;;;;;9.00;44.25;98871.84;105918;1254;72908;-25
2024/03/03 09:22:24;;;;;;;11.80;5.30;;;;;;;9.03;44.43;98879.33;105898;1254;75878;-25
2024/03/03 09:24:52;;;;;;;6.30;4.80;;;;;;;9.13;44.69;98877.41;105896;1254;72608;-27
2024/03/03 09:27:20;;;;;;;8.90;4.50;;;;;;;9.14;44.75;98875.09;105875;1254;62174;-25
2024/03/03 09:29:47;;;;;;;8.10;5.30;;;;;;;9.02;44.38;98876.14;105817;1253;61205;-25
2024/03/03 09:32:14;;;;;;;9.20;4.50;;;;;;;9.32;44.28;98879.77;105508;1254;75311;-25
2024/03/03 09:34:42;;;;;;;8.70;5.70;;;;;;;9.46;44.11;98879.33;105646;1257;74824;-26
2024/03/03 09:37:12;;;;;;;11.70;5.50;;;;;;;9.75;43.88;98885.02;105778;1254;74177;-26
2024/03/03 09:39:39;;;;;;;12.70;6.20;;;;;;;10.10;43.55;98883.36;105538;1257;61146;-26
2024/03/03 09:42:07;;;;;;;10.20;4.70;;;;;;;10.39;43.02;98886.91;105711;1253;62099;-26
2024/03/03 09:44:41;;;;;;;6.70;3.90;;;;;;;10.41;42.41;98886.61;105506;1254;75157;-25
2024/03/03 09:47:14;;;;;;;8.30;4.60;;;;;;;10.15;42.07;98883.86;105692;1253;72986;-26
2024/03/03 09:49:45;;;;;;;9.90;5.20;;;;;;;10.09;43.20;98882.27;105602;1257;72672;-26
2024/03/03 09:52:14;;;;;;;11.70;6.30;;;;;;;9.78;43.08;98880.94;105769;1255;61238;-26
2024/03/03 09:54:42;;;;;;;7.10;4.80;;;;;;;9.66;44.11;98883.48;105675;1255;61853;-26
2024/03/03 09:57:12;;;;;;;10.20;4.60;;;;;;;9.55;44.47;98876.90;105754;1254;74357;-26
2024/03/03 09:59:40;;;;;;;9.50;4.60;;;;;;;9.68;44.19;98876.75;105522;1254;74438;-26
2024/03/03 10:02:15;;;;;;;10.60;4.90;;;;;;;9.37;43.83;98871.73;105649;1253;72464;-26
2024/03/03 10:04:46;;;;;;;14.00;6.00;;;;;;;9.54;44.66;98867.30;105565;1255;62180;-26
2024/03/03 10:07:23;;;;;;;9.90;5.00;;;;;;;9.37;44.36;98864.42;105727;1257;61150;-26
2024/03/03 10:09:56;;;;;;;7.60;4.60;;;;;;;8.99;45.06;98864.40;105716;1258;75550;-26
2024/03/03 10:12:23;;;;;;;5.70;3.60;;;;;;;8.85;45.10;98862.90;105656;1254;74171;-26
2024/03/03 10:14:55;;;;;;;7.30;4.30;;;;;;;8.92;45.31;98856.17;105683;1254;74226;-26
2024/03/03 10:17:25;;;;;;;8.10;4.90;;;;;;;9.42;44.34;98859.52;105745;1253;61771;-26
2024/03/03 10:19:59;;;;;;;7.10;3.30;;;;;;;9.72;43.81;98858.19;105742;1254;61057;-26
2024/03/03 10:22:26;;;;;;;6.30;4.20;;;;;;;9.54;43.78;98855.32;105730;1254;73624;-26
2024/03/03 10:25:13;;;;;;;9.70;4.70;;;;;;;9.63;44.12;98853.40;105684;1254;75884;-26
2024/03/03 10:27:42;;;;;;;8.30;3.90;;;;;;;9.98;43.78;98857.51;105871;1254;74171;-26
2024/03/03 10:30:12;;;;;;;5.90;4.10;;;;;;;10.25;42.83;98856.67;105535;1254;62470;-26
2024/03/03 10:32:40;;;;;;;13.10;4.70;;;;;;;10.23;42.59;98857.54;105865;1257;61863;-26
2024/03/03 10:35:12;;;;;;;9.90;5.80;;;;;;;10.71;42.34;98857.70;105917;1257;73631;-26
2024/03/03 10:38:08;;;;;;;5.30;3.80;;;;;;;11.15;41.49;98854.52;105705;1257;74320;-26
2024/03/03 10:40:35;;;;;;;7.90;3.80;;;;;;;10.96;41.63;98851.43;105745;1254;74042;-26
2024/03/03 10:43:03;;;;;;;11.30;5.10;;;;;;;11.04;40.68;98848.32;105600;1254;61081;-26
2024/03/03 10:45:31;;;;;;;9.50;5.10;;;;;;;11.19;41.01;98846.30;105576;1257;61758;-26
2024/03/03 10:47:59;;;;;;;7.20;4.30;;;;;;;11.26;41.00;98845.77;105693;1254;75315;-26
2024/03/03 10:50:27;;;;;;;9.10;5.30;;;;;;;11.21;40.47;98847.59;105783;1257;75857;-26
2024/03/03 10:52:56;;;;;;;8.10;4.20;;;;;;;11.22;41.24;98841.62;105580;1256;74534;-26
2024/03/03 10:55:24;;;;;;;7.50;4.20;;;;;;;11.40;40.67;98842.05;105594;1257;61169;-26
2024/03/03 10:57:52;;;;;;;10.20;5.50;;;;;;;11.03;41.41;98832.94;105863;1256;61826;-26
2024/03/03 11:00:24;;;;;;;7.60;4.30;;;;;;;11.14;40.53;98834.80;105755;1254;75654;-26
2024/03/03 11:02:51;;;;;;;12.30;4.70;;;;;;;11.23;40.70;98837.28;105752;1254;75622;-26
2024/03/03 11:05:19;;;;;;;11.10;5.20;;;;;;;11.24;39.81;98833.61;105881;1254;73660;-26
2024/03/03 11:07:47;;;;;;;10.40;5.40;;;;;;;11.23;40.26;98835.24;105697;1254;61930;-26
2024/03/03 11:10:15;;;;;;;8.00;4.50;;;;;;;11.28;40.62;98830.59;105720;1258;61204;-26
2024/03/03 11:12:44;;;;;;;6.80;4.30;;;;;;;11.22;41.22;98825.23;105707;1254;75024;-26
2024/03/03 11:15:12;;;;;;;12.50;5.10;;;;;;;11.17;40.90;98823.28;105856;1256;74163;-26
2024/03/03 11:17:41;;;;;;;6.50;4.30;;;;;;;11.04;40.33;98818.95;105751;1254;72620;-26
2024/03/03 11:20:16;;;;;;;6.60;3.80;;;;;;;11.02;39.77;98823.34;105763;1259;61534;-26
2024/03/03 11:22:58;;;;;;;9.30;3.80;;;;;;;11.06;39.78;98822.43;105830;1257;61163;-25
2024/03/03 11:25:27;;;;;;;10.20;5.10;;;;;;;10.93;40.23;98816.40;105749;1254;75446;-26
2024/03/03 11:27:56;;;;;;;4.90;3.20;;;;;;;10.76;40.07;98817.38;105742;1258;74094;-26
2024/03/03 11:30:24;;;;;;;11.10;5.70;;;;;;;10.56;40.47;98812.16;105707;1259;73632;-26
2024/03/03 11:32:51;;;;;;;6.40;3.50;;;;;;;10.40;41.16;98810.50;105749;1254;61887;-26
2024/03/03 11:35:19;;;;;;;10.30;5.50;;;;;;;10.41;41.09;98811.30;105807;1256;61102;-26
2024/03/03 11:37:48;;;;;;;5.40;4.00;;;;;;;10.44;41.29;98805.52;105668;1254;73737;-26
2024/03/03 11:40:16;;;;;;;12.70;5.60;;;;;;;10.43;41.49;98804.88;105707;1254;72901;-26
2024/03/03 11:42:47;;;;;;;22.40;4.90;;;;;;;10.55;41.51;98806.13;105678;1254;71279;-26
2024/03/03 11:45:15;;;;;;;7.60;4.20;;;;;;;10.59;41.09;98805.66;105821;1253;61706;-26
2024/03/03 11:47:48;;;;;;;7.00;4.50;;;;;;;10.63;40.83;98801.34;105661;1254;61446;-26
2024/03/03 11:50:19;;;;;;;;;;;;;;;10.42;40.96;98802.31;105811;1254;75195;-26
2024/03/03 11:52:48;;;;;;;9.30;4.50;;;;;;;10.56;42.37;98802.58;105723;1254;75762;-26
2024/03/03 11:55:25;;;;;;;10.40;5.60;;;;;;;10.58;42.53;98803.46;105899;1256;74203;-26
2024/03/03 11:57:58;;;;;;;6.40;4.00;;;;;;;10.56;41.62;98803.30;105685;1254;61871;-26
2024/03/03 12:00:27;;;;;;;7.50;4.40;;;;;;;10.52;42.13;98799.85;105724;1252;62160;-26
2024/03/03 12:02:56;;;;;;;11.10;5.40;;;;;;;10.33;42.29;98803.92;105726;1257;74401;-26
2024/03/03 12:05:24;;;;;;;9.20;4.50;;;;;;;10.43;42.12;98798.60;105720;1260;75831;-26
2024/03/03 12:07:53;;;;;;;8.80;5.50;;;;;;;10.53;42.64;98797.84;105679;1254;73571;-25
2024/03/03 12:10:24;;;;;;;14.20;6.40;;;;;;;10.60;41.82;98797.19;105722;1254;61182;-25
2024/03/03 12:12:53;;;;;;;17.50;5.80;;;;;;;10.48;41.71;98790.95;105693;1252;61817;-25
2024/03/03 12:15:21;;;;;;;9.80;4.90;;;;;;;10.56;42.85;98791.29;105691;1254;75583;-26
2024/03/03 12:17:59;;;;;;;8.50;5.20;;;;;;;10.56;42.02;98791.45;105542;1254;75991;-27
2024/03/03 12:20:27;;;;;;;7.10;4.00;;;;;;;10.46;42.81;98791.10;105582;1255;74072;-26
2024/03/03 12:22:55;;;;;;;7.80;4.30;;;;;;;10.49;42.37;98797.08;105663;1257;61199;-26
2024/03/03 12:25:23;;;;;;;9.90;3.70;;;;;;;10.35;42.34;98795.47;105908;1253;61926;-25
2024/03/03 12:27:55;;;;;;;8.30;4.60;;;;;;;10.32;42.52;98799.02;105952;1256;75367;-26
2024/03/03 12:30:26;;;;;;;9.80;5.10;;;;;;;10.41;42.77;98797.55;105727;1257;76120;-26
2024/03/03 12:32:53;;;;;;;7.30;3.80;;;;;;;10.36;42.72;98794.03;105828;1254;73146;-26
2024/03/03 12:35:24;;;;;;;9.00;4.50;;;;;;;10.31;42.73;98794.10;105802;1255;61490;-26
2024/03/03 12:37:53;;;;;;;7.40;5.30;;;;;;;10.19;43.26;98798.86;105858;1257;61787;-25
2024/03/03 12:40:20;;;;;;;6.10;4.00;;;;;;;10.20;43.29;98791.49;105796;1253;75615;-26
2024/03/03 12:42:51;;;;;;;8.70;4.80;;;;;;;10.05;43.53;98796.41;105617;1254;75747;-26
2024/03/03 12:45:19;;;;;;;7.80;3.70;;;;;;;9.81;44.10;98796.25;105574;1254;73890;-26
2024/03/03 12:47:47;;;;;;;6.30;5.00;;;;;;;9.68;44.53;98795.29;105815;1257;61599;-25
2024/03/03 12:50:16;;;;;;;7.40;4.80;;;;;;;9.56;45.05;98795.66;105652;1256;61116;-25
2024/03/03 12:52:44;;;;;;;9.40;4.90;;;;;;;9.49;44.66;98797.27;105761;1254;73797;-25
2024/03/03 12:55:12;;;;;;;8.00;4.30;;;;;;;9.41;44.40;98793.05;105895;1254;74708;-25